Time;durP1;ratioP1;P1;durP2;ratioP2;P2;SDS_P1;SDS_P2;PMS_P1;PMS_P2;Temp;Humidity;BMP_temperature;BMP_pressure;BME280_temperature;BME280_humidity;BME280_pressure;Samples;Min_cycle;Max_cycle;Signal;HPM_P1;HPM_P2
2021/01/21 00:02:04;;;;;;;3.35;1.30;;;;;;;7.35;71.51;97329.44;4974767;28;20134;-30
2021/01/21 00:04:29;;;;;;;5.20;1.50;;;;;;;7.38;71.34;97315.69;4973317;28;20035;-31
2021/01/21 00:06:54;;;;;;;2.38;1.05;;;;;;;7.37;71.41;97332.84;4973393;28;20541;-31
2021/01/21 00:09:20;;;;;;;3.10;1.42;;;;;;;7.40;71.52;97332.81;4989559;28;20058;-31
2021/01/21 00:11:48;;;;;;;3.45;1.58;;;;;;;7.41;71.15;97306.19;4974635;28;20406;-30
2021/01/21 00:14:14;;;;;;;5.82;1.45;;;;;;;7.40;70.96;97299.31;4974497;28;20035;-31
2021/01/21 00:16:41;;;;;;;2.38;1.20;;;;;;;7.43;71.01;97327.63;4972916;28;20093;-31
2021/01/21 00:19:10;;;;;;;5.75;2.03;;;;;;;7.47;70.72;97306.06;4974629;28;20129;-30
2021/01/21 00:21:35;;;;;;;4.20;1.40;;;;;;;7.50;70.85;97287.16;4973209;28;20527;-30
2021/01/21 00:24:01;;;;;;;4.28;1.45;;;;;;;7.51;70.73;97278.53;4941492;28;20122;-30
2021/01/21 00:26:27;;;;;;;3.70;1.45;;;;;;;7.50;70.69;97258.78;4974819;28;20069;-30
2021/01/21 00:28:53;;;;;;;7.30;1.48;;;;;;;7.49;70.47;97241.63;4974268;28;20125;-31
2021/01/21 00:31:21;;;;;;;8.55;1.80;;;;;;;7.54;70.59;97255.31;4989696;28;20045;-30
2021/01/21 00:33:51;;;;;;;3.10;1.30;;;;;;;7.57;70.53;97252.66;4974419;28;20093;-30
2021/01/21 00:36:19;;;;;;;2.72;1.40;;;;;;;7.58;70.54;97222.59;4989455;28;20130;-31
2021/01/21 00:38:47;;;;;;;2.65;1.27;;;;;;;7.58;70.11;97231.16;4974176;28;20474;-31
2021/01/21 00:41:13;;;;;;;4.05;1.42;;;;;;;7.62;70.28;97219.09;4957190;28;20071;-32
2021/01/21 00:43:41;;;;;;;3.97;1.33;;;;;;;7.62;70.07;97230.22;4941078;28;20125;-30
2021/01/21 00:46:11;;;;;;;2.88;1.33;;;;;;;7.66;70.07;97204.41;4974200;28;20034;-31
2021/01/21 00:48:37;;;;;;;3.67;1.50;;;;;;;7.64;69.78;97207.00;4989190;28;20453;-31
2021/01/21 00:51:11;;;;;;;4.97;1.92;;;;;;;7.61;69.64;97195.03;4974308;28;20137;-31
2021/01/21 00:53:40;;;;;;;6.13;1.95;;;;;;;7.65;69.78;97211.28;4957398;28;20050;-31
2021/01/21 00:56:07;;;;;;;2.58;1.52;;;;;;;7.66;69.74;97205.25;4973932;28;20039;-31
2021/01/21 00:58:35;;;;;;;5.75;1.60;;;;;;;7.66;69.96;97173.47;4989011;28;20035;-31
2021/01/21 01:01:06;;;;;;;3.10;1.65;;;;;;;7.68;70.03;97206.06;4957494;28;20097;-31
2021/01/21 01:03:34;;;;;;;3.35;1.38;;;;;;;7.67;69.69;97172.59;4988744;28;20046;-31
2021/01/21 01:06:04;;;;;;;3.22;1.65;;;;;;;7.68;69.75;97171.72;4989119;28;20074;-30
2021/01/21 01:08:34;;;;;;;4.50;1.48;;;;;;;7.72;68.91;97153.59;4974222;28;20039;-31
2021/01/21 01:11:02;;;;;;;5.25;1.98;;;;;;;7.74;69.51;97140.66;4977841;28;20067;-30
2021/01/21 01:13:28;;;;;;;3.58;1.67;;;;;;;7.74;69.34;97149.25;4977340;28;20039;-31
2021/01/21 01:15:56;;;;;;;2.33;1.33;;;;;;;7.79;69.10;97144.00;4976096;28;20125;-31
2021/01/21 01:18:28;;;;;;;1.88;1.30;;;;;;;7.81;68.98;97141.38;4976440;28;20090;-30
2021/01/21 01:20:58;;;;;;;3.42;1.50;;;;;;;7.78;69.09;97135.41;4960758;28;20185;-30
2021/01/21 01:23:30;;;;;;;1.85;1.17;;;;;;;7.78;69.52;97126.84;4977678;28;20045;-31
2021/01/21 01:25:56;;;;;;;3.13;1.42;;;;;;;7.76;69.38;97132.03;4992214;28;20034;-30
2021/01/21 01:28:22;;;;;;;5.28;1.77;;;;;;;7.81;69.66;97134.50;4992373;28;20034;-31
2021/01/21 01:30:52;;;;;;;5.80;1.42;;;;;;;7.81;69.48;97123.34;4977597;28;20039;-31
2021/01/21 01:33:20;;;;;;;2.63;1.45;;;;;;;7.77;68.75;97143.19;4960791;28;20034;-31
2021/01/21 01:35:49;;;;;;;8.70;2.22;;;;;;;7.82;69.74;97143.94;4992423;28;20045;-30
2021/01/21 01:38:14;;;;;;;2.17;1.20;;;;;;;7.83;69.14;97152.53;4977105;28;20486;-30
2021/01/21 01:40:40;;;;;;;3.22;1.77;;;;;;;7.81;69.53;97126.78;4976727;28;20070;-30
2021/01/21 01:43:09;;;;;;;5.32;1.60;;;;;;;7.80;69.44;97153.44;4991648;28;20045;-30
2021/01/21 01:45:37;;;;;;;7.72;1.65;;;;;;;7.83;69.48;97119.00;4992085;28;20042;-31
2021/01/21 01:48:04;;;;;;;4.95;1.42;;;;;;;7.83;69.12;97121.56;4959787;28;20043;-31
2021/01/21 01:50:30;;;;;;;3.53;1.58;;;;;;;7.86;69.41;97129.25;4976916;28;20066;-31
2021/01/21 01:52:55;;;;;;;4.30;1.90;;;;;;;7.90;69.33;97113.69;4976900;28;20493;-31
2021/01/21 01:55:21;;;;;;;4.75;1.45;;;;;;;7.89;69.68;97129.22;4976933;28;20062;-30
2021/01/21 01:57:53;;;;;;;4.22;1.40;;;;;;;7.93;69.09;97095.59;4959504;28;20129;-30
2021/01/21 02:00:22;;;;;;;3.17;1.50;;;;;;;7.95;69.72;97086.97;4959850;28;20035;-30
2021/01/21 02:02:51;;;;;;;4.93;1.55;;;;;;;7.96;68.84;97084.34;4975658;28;20058;-30
2021/01/21 02:05:18;;;;;;;4.47;1.33;;;;;;;8.01;69.40;97110.91;4976350;28;20121;-31
2021/01/21 02:07:44;;;;;;;3.80;1.63;;;;;;;8.00;69.63;97085.97;4976558;28;20089;-30
2021/01/21 02:10:16;;;;;;;15.88;1.70;;;;;;;8.05;69.68;97098.78;4976193;28;20035;-31
2021/01/21 02:12:47;;;;;;;4.53;1.45;;;;;;;8.04;68.87;97071.28;4975858;28;20042;-30
2021/01/21 02:15:39;;;;;;;5.20;1.40;;;;;;;8.05;69.36;97075.56;4991263;28;20063;-31
2021/01/21 02:18:14;;;;;;;2.90;1.38;;;;;;;8.07;69.33;97081.53;4991818;28;20038;-30
2021/01/21 02:20:54;;;;;;;3.75;1.70;;;;;;;8.07;69.28;97086.69;4974356;28;20046;-30
2021/01/21 02:23:38;;;;;;;4.63;2.05;;;;;;;8.11;69.56;97114.13;4976648;28;20031;-30
2021/01/21 02:26:09;;;;;;;3.95;1.60;;;;;;;8.11;69.21;97126.16;4975045;28;20042;-30
2021/01/21 02:29:12;;;;;;;3.10;1.52;;;;;;;8.12;69.05;97090.03;4975875;28;20130;-31
2021/01/21 02:31:57;;;;;;;3.58;1.60;;;;;;;8.12;69.46;97092.63;4991266;28;20047;-31
2021/01/21 02:34:46;;;;;;;3.50;1.40;;;;;;;8.15;69.12;97091.69;4976459;28;20050;-31
2021/01/21 02:37:31;;;;;;;2.45;1.60;;;;;;;8.17;68.61;97083.06;4960111;28;20061;-30
2021/01/21 02:40:02;;;;;;;9.10;1.65;;;;;;;8.16;69.50;97070.19;4976399;28;20037;-31
2021/01/21 02:42:31;;;;;;;2.42;1.17;;;;;;;8.19;69.51;97103.66;4975974;28;20077;-31
2021/01/21 02:44:58;;;;;;;3.03;1.50;;;;;;;8.15;69.71;97095.16;4975922;28;20031;-30
2021/01/21 02:47:27;;;;;;;6.30;2.17;;;;;;;8.16;69.80;97099.41;4990868;28;20096;-30
2021/01/21 02:49:55;;;;;;;5.85;1.90;;;;;;;8.18;70.06;97133.75;4975882;28;20451;-30
2021/01/21 02:52:26;;;;;;;5.63;1.58;;;;;;;8.22;69.89;97119.06;4990701;28;20039;-30
2021/01/21 02:55:14;;;;;;;7.57;1.88;;;;;;;8.21;70.46;97105.31;4975938;28;20043;-31
2021/01/21 02:58:12;;;;;;;4.40;1.30;;;;;;;8.17;70.92;97108.88;4975756;28;20109;-31
2021/01/21 03:00:39;;;;;;;7.10;1.80;;;;;;;8.17;70.87;97124.34;4975508;28;20058;-31
2021/01/21 03:03:13;;;;;;;2.97;1.75;;;;;;;8.17;70.88;97111.44;4958085;28;20050;-30
2021/01/21 03:05:39;;;;;;;;;;;;;;;8.17;71.00;97110.56;4976139;28;20054;-30
2021/01/21 03:08:10;;;;;;;4.47;1.30;;;;;;;8.14;70.96;97092.56;4975384;28;19925;-30
2021/01/21 03:10:41;;;;;;;5.03;1.95;;;;;;;8.11;71.20;97066.84;4990750;28;20043;-31
2021/01/21 03:13:06;;;;;;;4.20;1.75;;;;;;;8.13;71.00;97098.63;4975276;28;20150;-31
2021/01/21 03:15:37;;;;;;;6.30;1.45;;;;;;;8.11;71.53;97095.22;4975712;28;20509;-30
2021/01/21 03:18:08;;;;;;;4.00;1.20;;;;;;;8.11;71.50;97092.63;4990652;28;20039;-30
2021/01/21 03:20:36;;;;;;;2.40;1.27;;;;;;;8.13;71.44;97094.31;4957866;28;20042;-30
2021/01/21 03:23:02;;;;;;;2.40;1.35;;;;;;;8.13;71.32;97076.25;4975416;28;20042;-30
2021/01/21 03:25:27;;;;;;;3.40;1.35;;;;;;;8.11;71.40;97085.75;4990173;28;20502;-30
2021/01/21 03:27:55;;;;;;;4.60;1.77;;;;;;;8.12;71.53;97089.19;4957947;28;20383;-30
2021/01/21 03:30:21;;;;;;;2.13;1.27;;;;;;;8.14;71.42;97087.41;4990526;28;20057;-30
2021/01/21 03:32:50;;;;;;;4.13;1.55;;;;;;;8.13;71.42;97091.75;4989808;28;20414;-30
2021/01/21 03:35:18;;;;;;;4.03;1.63;;;;;;;8.10;71.62;97104.69;4973564;28;20093;-30
2021/01/21 03:37:47;;;;;;;4.43;1.40;;;;;;;8.13;71.72;97107.22;4974752;28;20038;-31
2021/01/21 03:40:13;;;;;;;4.18;1.63;;;;;;;8.14;71.67;97126.13;4957463;28;20393;-31
2021/01/21 03:42:43;;;;;;;4.30;1.45;;;;;;;8.15;71.72;97082.25;4941735;28;20061;-31
2021/01/21 03:45:14;;;;;;;4.00;1.48;;;;;;;8.15;71.68;97108.03;4990081;28;20049;-31
2021/01/21 03:47:44;;;;;;;3.78;1.67;;;;;;;8.15;71.90;97089.97;4989951;28;20403;-30
2021/01/21 03:50:11;;;;;;;5.13;1.77;;;;;;;8.15;71.87;97114.91;4957766;28;20039;-31
2021/01/21 03:52:47;;;;;;;4.15;1.75;;;;;;;8.14;71.84;97100.31;4989212;28;20042;-31
2021/01/21 03:55:12;;;;;;;2.63;1.65;;;;;;;8.16;71.95;97090.81;4974127;28;20042;-31
2021/01/21 03:57:41;;;;;;;5.18;1.50;;;;;;;8.14;72.30;97106.34;4974225;28;20119;-30
2021/01/21 04:00:11;;;;;;;3.72;1.30;;;;;;;8.12;72.16;97109.81;4989957;28;20375;-30
2021/01/21 04:02:41;;;;;;;3.33;1.98;;;;;;;8.08;72.49;97099.59;4970137;28;20039;-30
2021/01/21 04:05:07;;;;;;;3.70;1.70;;;;;;;8.07;72.36;97097.88;4955506;28;20027;-31
2021/01/21 04:07:38;;;;;;;3.80;1.40;;;;;;;8.12;72.33;97096.91;4955321;28;20063;-31
2021/01/21 04:10:07;;;;;;;3.80;1.80;;;;;;;8.16;71.54;97104.59;4955712;28;20154;-30
2021/01/21 04:12:40;;;;;;;4.05;1.92;;;;;;;8.16;72.36;97103.72;4955904;28;20038;-31
2021/01/21 04:15:06;;;;;;;3.63;2.00;;;;;;;8.15;72.13;97115.78;4954128;29;20062;-31
2021/01/21 04:17:37;;;;;;;4.20;2.00;;;;;;;8.14;72.51;97111.50;4955352;28;20067;-31
2021/01/21 04:20:03;;;;;;;3.95;1.67;;;;;;;8.17;72.37;97116.59;4970336;28;20070;-31
2021/01/21 04:22:31;;;;;;;3.10;1.60;;;;;;;8.12;73.29;97107.22;4969862;28;20461;-30
2021/01/21 04:25:03;;;;;;;4.43;1.83;;;;;;;8.14;73.79;97169.97;4970241;28;20090;-31
2021/01/21 04:27:31;;;;;;;4.50;2.15;;;;;;;8.11;73.25;97351.47;4955293;29;20031;-30
2021/01/21 04:30:01;;;;;;;9.93;1.35;;;;;;;7.92;72.35;97372.41;4955401;29;20039;-31
2021/01/21 04:32:36;;;;;;;7.30;2.08;;;;;;;7.60;72.41;97362.59;4954014;29;20037;-31
2021/01/21 04:35:02;;;;;;;9.52;1.92;;;;;;;7.31;72.46;97372.44;4954410;28;20043;-30
2021/01/21 04:37:30;;;;;;;4.72;1.83;;;;;;;7.18;72.23;97377.78;4969844;28;20132;-30
2021/01/21 04:39:58;;;;;;;7.72;2.25;;;;;;;7.10;72.57;97396.75;4969934;28;20035;-31
2021/01/21 04:42:25;;;;;;;7.88;2.03;;;;;;;7.00;72.32;97408.91;4969779;28;20070;-31
2021/01/21 04:44:53;;;;;;;5.47;1.65;;;;;;;6.97;72.23;97421.81;4971858;28;20497;-30
2021/01/21 04:47:22;;;;;;;6.20;1.42;;;;;;;6.93;72.36;97424.44;4957660;29;20050;-30
2021/01/21 04:49:48;;;;;;;15.95;2.15;;;;;;;6.94;72.30;97428.72;4957590;29;20546;-30
2021/01/21 04:52:17;;;;;;;5.32;1.70;;;;;;;6.87;72.59;97438.25;4973727;28;20039;-31
2021/01/21 04:54:51;;;;;;;6.15;2.15;;;;;;;6.83;72.35;97433.97;4973913;28;20062;-30
2021/01/21 04:57:20;;;;;;;4.88;1.67;;;;;;;6.76;72.70;97448.63;4973616;28;20039;-30
2021/01/21 04:59:55;;;;;;;4.68;1.30;;;;;;;6.72;72.73;97438.41;4973033;28;20122;-30
2021/01/21 05:02:24;;;;;;;4.05;1.05;;;;;;;6.72;73.00;97446.13;4967679;28;20471;-30
2021/01/21 05:04:52;;;;;;;7.10;0.95;;;;;;;6.70;72.92;97444.41;4976321;28;20050;-30
2021/01/21 05:07:20;;;;;;;2.55;0.70;;;;;;;6.66;72.85;97462.47;4944968;28;20422;-30
2021/01/21 05:09:51;;;;;;;3.70;0.75;;;;;;;6.66;72.74;97463.31;4977773;28;20074;-30
2021/01/21 05:12:17;;;;;;;5.38;1.25;;;;;;;6.65;72.16;97473.66;4976296;28;20062;-30
2021/01/21 05:14:45;;;;;;;3.40;1.10;;;;;;;6.62;72.86;97465.94;4977534;28;20043;-30
2021/01/21 05:17:14;;;;;;;1.88;0.90;;;;;;;6.62;72.67;97471.94;4976327;28;20093;-30
2021/01/21 05:19:44;;;;;;;4.63;1.23;;;;;;;6.65;72.75;97484.78;4959460;28;20126;-30
2021/01/21 05:22:14;;;;;;;4.00;0.95;;;;;;;6.59;72.66;97477.13;4960332;28;20042;-30
2021/01/21 05:24:47;;;;;;;2.10;0.90;;;;;;;6.49;72.99;97481.50;4977428;28;20035;-30
2021/01/21 05:27:16;;;;;;;5.22;1.17;;;;;;;6.51;72.50;97490.06;4977622;28;20046;-30
2021/01/21 05:29:49;;;;;;;2.97;1.00;;;;;;;6.46;73.03;97489.25;4976684;28;20034;-30
2021/01/21 05:32:17;;;;;;;3.97;1.17;;;;;;;6.46;72.81;97462.66;4977589;28;20035;-30
2021/01/21 05:34:46;;;;;;;3.95;1.00;;;;;;;6.46;72.36;97494.38;4992115;28;20509;-30
2021/01/21 05:37:17;;;;;;;3.88;1.10;;;;;;;6.39;72.58;97477.28;4977059;28;20039;-31
2021/01/21 05:39:47;;;;;;;1.73;0.95;;;;;;;6.38;72.14;97489.31;4976009;28;20494;-30
2021/01/21 05:42:19;;;;;;;5.45;1.25;;;;;;;6.35;72.31;97521.94;4959826;28;20090;-30
2021/01/21 05:44:51;;;;;;;5.40;1.08;;;;;;;6.34;72.69;97513.34;4977631;28;20118;-29
2021/01/21 05:47:22;;;;;;;2.88;1.23;;;;;;;6.36;72.02;97532.19;4976669;28;20521;-31
2021/01/21 05:49:52;;;;;;;2.67;1.10;;;;;;;6.35;72.46;97527.06;4976840;28;20038;-30
2021/01/21 05:52:24;;;;;;;2.33;0.80;;;;;;;6.31;72.26;97515.94;4943736;28;20045;-30
2021/01/21 05:54:51;;;;;;;4.82;0.93;;;;;;;6.34;72.30;97526.22;4991740;28;20486;-30
2021/01/21 05:57:17;;;;;;;2.78;0.93;;;;;;;6.34;72.46;97508.19;4976209;28;20051;-30
2021/01/21 05:59:48;;;;;;;4.20;1.20;;;;;;;6.29;72.20;97532.25;4975951;28;20034;-30
2021/01/21 06:02:18;;;;;;;5.57;0.90;;;;;;;6.28;72.67;97526.25;4976545;28;20138;-31
2021/01/21 06:04:47;;;;;;;10.80;1.92;;;;;;;6.25;72.21;97536.56;4976591;28;20505;-30
2021/01/21 06:07:19;;;;;;;2.42;1.33;;;;;;;6.22;72.60;97529.75;4975379;28;20130;-30
2021/01/21 06:09:45;;;;;;;4.25;0.90;;;;;;;6.21;72.38;97530.59;4975243;28;20398;-30
2021/01/21 06:12:11;;;;;;;4.43;1.13;;;;;;;6.21;72.88;97547.75;4959380;28;20034;-30
2021/01/21 06:14:36;;;;;;;6.15;1.10;;;;;;;6.20;72.36;97564.03;4975772;28;20390;-30
2021/01/21 06:17:07;;;;;;;8.77;1.98;;;;;;;6.19;72.18;97577.75;4990880;28;20042;-31
2021/01/21 06:19:38;;;;;;;2.28;1.33;;;;;;;6.21;71.81;97587.19;4959200;28;20105;-30
2021/01/21 06:22:09;;;;;;;4.88;1.13;;;;;;;6.19;72.10;97590.63;4959270;28;20042;-30
2021/01/21 06:24:48;;;;;;;5.07;1.70;;;;;;;6.17;72.48;97593.22;4976422;28;20039;-30
2021/01/21 06:27:14;;;;;;;3.78;1.65;;;;;;;6.16;72.38;97594.06;4975225;28;20042;-30
2021/01/21 06:29:47;;;;;;;4.57;1.48;;;;;;;6.12;72.35;97612.94;4976286;28;20113;-30
2021/01/21 06:32:14;;;;;;;4.07;1.23;;;;;;;6.13;72.42;97614.66;4975297;28;20098;-30
2021/01/21 06:34:41;;;;;;;15.00;3.15;;;;;;;6.13;71.95;97614.66;4976248;28;20035;-30
2021/01/21 06:37:12;;;;;;;5.60;1.40;;;;;;;6.11;72.53;97612.97;4976367;28;20038;-30
2021/01/21 06:40:00;;;;;;;6.35;1.70;;;;;;;6.10;72.47;97619.81;4974874;28;20039;-30
2021/01/21 06:42:28;;;;;;;5.85;2.08;;;;;;;6.08;72.44;97624.09;4974651;28;20039;-30
2021/01/21 06:44:58;;;;;;;3.95;1.27;;;;;;;6.09;72.15;97615.53;4975864;28;20030;-29
2021/01/21 06:47:24;;;;;;;5.55;1.33;;;;;;;6.08;72.11;97618.94;4974847;28;20046;-30
2021/01/21 06:49:55;;;;;;;7.13;1.65;;;;;;;6.05;72.67;97631.84;4976142;28;20522;-30
2021/01/21 06:52:22;;;;;;;6.68;1.30;;;;;;;6.04;71.94;97618.13;4974801;28;20047;-30
2021/01/21 06:54:48;;;;;;;6.88;1.65;;;;;;;6.04;71.96;97620.69;4975582;28;20575;-31
2021/01/21 06:57:41;;;;;;;7.95;1.92;;;;;;;6.04;72.42;97625.00;4974508;28;20073;-30
2021/01/21 07:00:15;;;;;;;9.27;1.67;;;;;;;6.01;72.43;97625.00;4974779;28;20497;-30
2021/01/21 07:02:50;;;;;;;4.05;1.20;;;;;;;5.96;72.83;97627.56;4974297;28;20070;-30
2021/01/21 07:05:21;;;;;;;3.75;1.00;;;;;;;5.97;72.55;97630.97;4974900;28;20039;-30
2021/01/21 07:07:56;;;;;;;9.95;1.35;;;;;;;5.93;72.13;97636.13;4973802;28;20047;-30
2021/01/21 07:10:48;;;;;;;4.53;1.40;;;;;;;5.93;71.97;97655.84;4990724;28;20039;-30
2021/01/21 07:13:21;;;;;;;5.15;1.80;;;;;;;5.87;72.51;97667.03;4990666;28;20133;-31
2021/01/21 07:15:49;;;;;;;3.63;1.13;;;;;;;5.92;72.25;97664.44;4990943;28;20039;-31
2021/01/21 07:18:18;;;;;;;9.63;1.52;;;;;;;5.89;71.94;97669.56;4974136;28;20038;-30
2021/01/21 07:21:24;;;;;;;6.65;1.55;;;;;;;5.84;72.10;97673.91;4990585;28;20118;-30
2021/01/21 07:23:52;;;;;;;8.25;1.63;;;;;;;5.82;72.67;97686.72;4927545;28;20054;-30
2021/01/21 07:26:27;;;;;;;2.88;1.38;;;;;;;5.83;71.99;97685.03;4975680;28;20051;-30
2021/01/21 07:29:09;;;;;;;4.65;1.30;;;;;;;5.76;72.80;97685.03;4974752;28;20438;-30
2021/01/21 07:31:50;;;;;;;5.18;1.35;;;;;;;5.76;72.85;97690.19;4958194;28;20035;-30
2021/01/21 07:34:21;;;;;;;4.75;1.23;;;;;;;5.76;72.28;97697.88;4957867;28;20038;-30
2021/01/21 07:37:09;;;;;;;5.82;1.30;;;;;;;5.73;72.66;97708.16;4958146;28;20035;-30
2021/01/21 07:39:53;;;;;;;2.15;0.93;;;;;;;5.69;72.03;97711.59;4957660;28;20065;-30
2021/01/21 07:42:23;;;;;;;4.03;1.40;;;;;;;5.68;72.31;97715.06;4975166;28;20031;-30
2021/01/21 07:45:00;;;;;;;11.48;1.63;;;;;;;5.70;71.85;97727.88;4957231;28;20039;-30
2021/01/21 07:47:32;;;;;;;3.13;1.20;;;;;;;5.66;72.01;97731.31;4974969;28;20043;-31
2021/01/21 07:50:16;;;;;;;8.82;2.00;;;;;;;5.63;72.86;97724.47;4974924;28;20557;-31
2021/01/21 07:52:47;;;;;;;9.57;2.70;;;;;;;5.63;71.93;97733.03;4974904;28;20030;-30
2021/01/21 07:55:34;;;;;;;4.70;1.48;;;;;;;5.64;72.12;97728.75;4957371;28;20070;-30
2021/01/21 07:58:18;;;;;;;5.47;1.35;;;;;;;5.61;72.38;97729.59;4957290;28;20074;-30
2021/01/21 08:00:45;;;;;;;3.42;1.20;;;;;;;5.61;72.77;97744.19;4974708;28;20126;-30
2021/01/21 08:03:13;;;;;;;3.97;1.35;;;;;;;5.63;72.52;97737.31;4957423;28;20474;-30
2021/01/21 08:05:39;;;;;;;5.35;1.50;;;;;;;5.64;72.19;97742.44;4957117;28;20133;-30
2021/01/21 08:08:08;;;;;;;5.90;1.55;;;;;;;5.58;72.23;97736.47;4941425;28;20122;-30
2021/01/21 08:10:38;;;;;;;4.68;1.17;;;;;;;5.58;72.11;97739.91;4957397;28;20062;-30
2021/01/21 08:13:15;;;;;;;5.45;1.20;;;;;;;5.59;72.64;97749.34;4973612;28;20078;-30
2021/01/21 08:15:41;;;;;;;5.55;1.30;;;;;;;5.62;71.97;97743.31;4974382;28;20043;-30
2021/01/21 08:18:10;;;;;;;6.25;1.15;;;;;;;5.61;72.33;97745.03;4941115;28;20045;-30
2021/01/21 08:20:37;;;;;;;4.78;1.38;;;;;;;5.60;71.98;97745.91;4977833;28;20039;-30
2021/01/21 08:23:11;;;;;;;12.68;1.88;;;;;;;5.61;71.80;97754.47;4978915;28;20051;-30
2021/01/21 08:25:48;;;;;;;5.65;1.58;;;;;;;5.57;72.58;97745.91;4978492;28;20195;-31
2021/01/21 08:28:18;;;;;;;7.35;1.23;;;;;;;5.54;72.74;97753.59;4978528;28;20038;-30
2021/01/21 08:30:50;;;;;;;7.80;1.70;;;;;;;5.56;72.55;97758.72;4961064;28;20038;-31
2021/01/21 08:33:20;;;;;;;5.45;1.25;;;;;;;5.59;72.60;97774.16;4960958;28;20482;-30
2021/01/21 08:35:54;;;;;;;7.05;1.25;;;;;;;5.52;72.86;97768.16;4961273;28;20078;-30
2021/01/21 08:38:23;;;;;;;4.30;1.10;;;;;;;5.53;72.68;97769.88;4944932;28;20043;-30
2021/01/21 08:40:50;;;;;;;7.43;1.70;;;;;;;5.59;72.43;97781.88;4978457;28;20046;-30
2021/01/21 08:43:20;;;;;;;7.88;1.90;;;;;;;5.54;72.27;97784.44;4960799;28;20031;-31
2021/01/21 08:45:51;;;;;;;4.07;1.23;;;;;;;5.62;71.73;97774.16;4978788;28;20042;-30
2021/01/21 08:48:31;;;;;;;6.63;2.35;;;;;;;5.57;72.39;97784.44;4978167;28;20138;-30
2021/01/21 08:51:05;;;;;;;7.20;1.40;;;;;;;5.60;72.23;97776.75;4961153;28;20093;-30
2021/01/21 08:53:36;;;;;;;7.47;2.08;;;;;;;5.56;72.90;97792.13;4977711;28;20035;-30
2021/01/21 08:56:15;;;;;;;4.35;1.40;;;;;;;5.53;72.96;97776.75;4978336;28;20039;-30
2021/01/21 08:58:44;;;;;;;4.97;1.20;;;;;;;5.55;72.34;97795.56;4960449;28;20039;-30
2021/01/21 09:01:11;;;;;;;17.88;2.45;;;;;;;5.54;72.63;97788.72;4960499;28;20039;-31
2021/01/21 09:03:47;;;;;;;30.00;3.08;;;;;;;5.52;72.45;97795.59;4960466;28;20042;-31
2021/01/21 09:06:17;;;;;;;6.70;1.35;;;;;;;5.52;72.82;97798.16;4960351;28;20046;-30
2021/01/21 09:08:57;;;;;;;6.30;2.45;;;;;;;5.53;72.72;97794.72;4960333;28;20026;-30
2021/01/21 09:11:28;;;;;;;7.68;1.70;;;;;;;5.51;72.73;97799.84;4977932;28;20046;-30
2021/01/21 09:13:55;;;;;;;5.50;1.40;;;;;;;5.55;72.44;97798.13;4977695;28;20030;-30
2021/01/21 09:16:39;;;;;;;7.93;2.20;;;;;;;5.56;72.68;97805.84;4977706;28;20035;-30
2021/01/21 09:19:05;;;;;;;6.28;1.73;;;;;;;5.55;72.00;97808.41;4977543;28;20045;-30
2021/01/21 09:21:30;;;;;;;5.28;1.70;;;;;;;5.59;72.37;97813.56;4960975;28;20040;-30
2021/01/21 09:24:10;;;;;;;6.57;2.13;;;;;;;5.56;72.74;97812.69;4978077;28;20093;-30
2021/01/21 09:26:36;;;;;;;3.85;1.83;;;;;;;5.57;72.15;97842.69;4977062;28;20035;-30
2021/01/21 09:29:02;;;;;;;8.73;2.55;;;;;;;5.60;72.66;97815.28;4977438;28;20046;-30
2021/01/21 09:31:31;;;;;;;7.70;1.80;;;;;;;5.56;73.04;97828.09;4976940;28;20046;-30
2021/01/21 09:34:01;;;;;;;9.20;1.83;;;;;;;5.59;72.30;97826.44;4960106;28;20042;-30
2021/01/21 09:36:29;;;;;;;8.30;1.42;;;;;;;5.62;72.75;97825.56;4960098;28;20163;-30
2021/01/21 09:38:57;;;;;;;6.25;1.52;;;;;;;5.62;72.63;97830.69;4977166;28;20399;-30
2021/01/21 09:41:25;;;;;;;11.30;1.77;;;;;;;5.61;72.85;97816.13;4959929;28;20041;-30
2021/01/21 09:43:57;;;;;;;11.75;1.98;;;;;;;5.63;72.57;97825.53;4977180;28;20031;-30
2021/01/21 09:46:22;;;;;;;6.30;1.55;;;;;;;5.65;72.97;97823.00;4960131;28;20129;-31
2021/01/21 09:48:48;;;;;;;7.47;1.40;;;;;;;5.65;72.30;97817.84;4959649;28;20117;-31
2021/01/21 09:51:19;;;;;;;10.45;1.55;;;;;;;5.66;72.99;97832.41;4959885;28;20403;-30
2021/01/21 09:53:44;;;;;;;7.18;2.40;;;;;;;5.69;72.48;97829.81;4976751;28;20035;-30
2021/01/21 09:56:10;;;;;;;4.40;1.52;;;;;;;5.71;72.17;97833.25;4977003;28;20055;-30
2021/01/21 09:58:35;;;;;;;4.50;1.73;;;;;;;5.71;72.36;97833.25;4959572;28;20035;-30
2021/01/21 10:01:01;;;;;;;10.07;1.35;;;;;;;5.71;72.67;97828.13;4977410;28;20125;-30
2021/01/21 10:03:26;;;;;;;9.57;2.28;;;;;;;5.73;72.29;97846.13;4977098;28;20161;-30
2021/01/21 10:05:51;;;;;;;6.15;2.25;;;;;;;5.74;72.70;97833.25;4959555;28;20069;-30
2021/01/21 10:08:23;;;;;;;2.03;1.33;;;;;;;5.74;72.61;97840.97;4976379;28;20037;-30
2021/01/21 10:10:51;;;;;;;7.45;1.92;;;;;;;5.72;72.56;97847.81;4976391;28;20035;-30
2021/01/21 10:13:19;;;;;;;5.97;1.92;;;;;;;5.75;72.44;97839.28;4976634;28;20035;-30
2021/01/21 10:15:48;;;;;;;9.52;3.15;;;;;;;5.76;72.45;97835.84;4944022;28;20050;-30
2021/01/21 10:18:13;;;;;;;8.43;1.42;;;;;;;5.76;72.24;97841.84;4976490;28;20054;-30
2021/01/21 10:20:41;;;;;;;9.30;1.58;;;;;;;5.75;72.92;97847.84;4959340;28;20035;-30
2021/01/21 10:23:09;;;;;;;5.93;1.50;;;;;;;5.75;72.50;97841.84;4976637;28;20066;-30
2021/01/21 10:25:34;;;;;;;7.97;1.33;;;;;;;5.79;72.16;97830.69;4958865;28;20533;-30
2021/01/21 10:28:07;;;;;;;4.30;1.17;;;;;;;5.80;72.60;97837.53;4942905;28;20399;-30
2021/01/21 10:30:33;;;;;;;10.23;1.40;;;;;;;5.82;72.15;97837.56;4943098;28;20043;-30
2021/01/21 10:33:06;;;;;;;3.58;1.35;;;;;;;5.81;72.79;97839.25;4976468;28;20034;-30
2021/01/21 10:35:32;;;;;;;9.15;2.47;;;;;;;5.82;72.52;97835.84;4959004;28;20038;-30
2021/01/21 10:38:06;;;;;;;7.95;1.65;;;;;;;5.81;72.51;97844.41;4976205;28;20041;-30
2021/01/21 10:40:31;;;;;;;5.25;1.77;;;;;;;5.79;72.53;97839.28;4976113;28;20035;-30
2021/01/21 10:42:59;;;;;;;9.30;1.63;;;;;;;5.82;72.21;97840.13;4974960;28;20057;-30
2021/01/21 10:45:25;;;;;;;9.90;1.60;;;;;;;5.81;72.21;97834.13;4958452;28;20045;-30
2021/01/21 10:47:56;;;;;;;13.75;3.25;;;;;;;5.83;72.39;97831.56;4975541;28;20031;-30
2021/01/21 10:50:26;;;;;;;10.23;1.70;;;;;;;5.85;71.89;97834.97;4958372;28;20043;-30
2021/01/21 10:52:52;;;;;;;10.02;2.22;;;;;;;5.88;72.37;97824.69;4975931;28;20114;-30
2021/01/21 10:55:19;;;;;;;6.93;1.83;;;;;;;5.87;72.80;97835.81;4975844;28;20066;-30
2021/01/21 10:57:45;;;;;;;8.95;1.65;;;;;;;5.85;72.26;97848.69;4976044;28;20510;-30
2021/01/21 11:00:11;;;;;;;6.53;2.15;;;;;;;5.88;72.53;97847.81;4975796;28;20043;-30
2021/01/21 11:02:36;;;;;;;7.53;1.85;;;;;;;5.86;72.54;97842.69;4958062;28;20047;-30
2021/01/21 11:05:03;;;;;;;4.90;1.00;;;;;;;5.88;71.99;97845.25;4942239;28;20081;-30
2021/01/21 11:07:31;;;;;;;4.03;1.35;;;;;;;5.87;72.79;97831.56;4975324;28;20042;-31
2021/01/21 11:09:56;;;;;;;2.90;1.17;;;;;;;5.87;72.60;97828.97;4942363;28;20038;-30
2021/01/21 11:12:22;;;;;;;10.05;1.60;;;;;;;5.88;72.73;97835.84;4974476;28;20041;-30
2021/01/21 11:14:53;;;;;;;5.00;1.55;;;;;;;5.88;72.56;97823.00;4975297;28;20073;-30
2021/01/21 11:17:18;;;;;;;6.88;1.90;;;;;;;5.91;72.04;97830.72;4958138;28;20113;-30
2021/01/21 11:19:44;;;;;;;6.10;1.67;;;;;;;5.90;72.53;97831.56;4957728;28;20545;-30
2021/01/21 11:22:10;;;;;;;7.60;1.65;;;;;;;5.89;72.46;97837.56;4957883;28;20058;-30
2021/01/21 11:24:39;;;;;;;12.20;2.20;;;;;;;5.93;72.26;97838.41;4975568;28;20042;-30
2021/01/21 11:27:04;;;;;;;7.03;2.25;;;;;;;5.90;72.80;97833.25;4941977;28;20065;-30
2021/01/21 11:29:30;;;;;;;8.77;1.85;;;;;;;5.91;72.49;97827.25;4975276;28;20035;-30
2021/01/21 11:31:56;;;;;;;6.90;1.20;;;;;;;5.89;72.32;97828.97;4958194;28;20058;-31
2021/01/21 11:34:22;;;;;;;2.90;1.30;;;;;;;5.91;72.65;97833.28;4941976;28;20039;-30
2021/01/21 11:36:48;;;;;;;7.75;1.95;;;;;;;5.95;72.32;97824.69;4941834;28;20042;-30
2021/01/21 11:39:14;;;;;;;4.50;1.65;;;;;;;5.95;72.70;97821.25;4975535;28;20081;-30
2021/01/21 11:41:39;;;;;;;6.18;1.42;;;;;;;5.95;72.60;97824.69;4958143;28;20125;-30
2021/01/21 11:44:06;;;;;;;5.13;1.52;;;;;;;6.01;72.67;97820.44;4975341;28;20125;-30
2021/01/21 11:46:32;;;;;;;10.45;2.78;;;;;;;6.01;72.14;97813.56;4957637;28;20086;-30
2021/01/21 11:48:57;;;;;;;4.88;1.73;;;;;;;6.04;72.30;97811.00;4957702;28;20426;-30
2021/01/21 11:51:23;;;;;;;8.27;1.45;;;;;;;6.05;72.25;97810.13;4957603;28;20438;-30
2021/01/21 11:53:48;;;;;;;8.05;1.77;;;;;;;6.04;72.07;97800.69;4957256;28;20070;-31
2021/01/21 11:56:14;;;;;;;5.68;1.60;;;;;;;6.06;72.12;97801.56;4974915;28;20490;-30